• Join FlightAware (Why Join?)
  • Login
  • US Flag 
02:09PM EDT


 

Airport Tracker/Info


-or-


 

Live Flight TrackerFlight Track Log ✈ EJA922 ✈ 24-Jul-2013 ✈ KSJC - KAPA

Flight Track Log - Related Links

Times and Time Zones

All times are in EDT time to prevent confusion due to time zone crossing. See the EJA922 flight status page for this flight to view local times or setup timezone preferences in your user account.

Time Position Orientation Groundspeed Altitude Reporting Facility
EDT Latitude Longitude Course Direction KTS MPH feet Rate Location/Type
01:22AM 37.3939 -121.9656 14° North 200 230 2,300  Level Oakland Center
01:23AM 37.4344 -121.9528 14° North 223 257 4,900 1,260 Climbing Oakland Center
01:24AM 37.3969 -121.8922 128° Southeast 225 259 4,900 1,440 Level Oakland Center
01:25AM 37.3506 -121.8314 134° Southeast 237 273 7,900 2,880 Climbing Oakland Center
01:26AM 37.2944 -121.8639 205° Southwest 273 314 11,400 2,820 Climbing Oakland Center
01:27AM 37.3700 -121.9400 321° Northwest 336 387 14,300 2,220 Climbing Oakland Center
01:28AM 37.4717 -121.9519 355° North 367 422 16,000 1,500 Climbing Oakland Center
01:29AM 37.5728 -121.8989 23° Northeast 395 455 17,400 1,380 Climbing Oakland Center
01:30AM 37.6669 -121.8192 34° Northeast 409 471 18,900 1,440 Climbing Oakland Center
01:31AM 37.7853 -121.7214 33° Northeast 427 491 20,400 1,440 Climbing Oakland Center
01:32AM 37.8867 -121.6386 33° Northeast 436 502 21,900 1,320 Climbing Oakland Center
01:33AM 37.9883 -121.5511 34° Northeast 441 507 23,200 1,260 Climbing Oakland Center
01:34AM 38.0756 -121.4481 43° Northeast 443 510 24,500 1,260 Climbing Oakland Center
01:36AM 38.1014 -121.2925 78° East 452 520 25,800 1,200 Climbing Oakland Center
01:37AM 38.1358 -121.1364 74° East 459 528 27,000 1,140 Climbing Oakland Center
01:38AM 38.1717 -120.9758 74° East 471 542 28,100 1,140 Climbing Oakland Center
01:39AM 38.2078 -120.8119 74° East 483 556 29,400 1,140 Climbing Oakland Center
01:40AM 38.2439 -120.6461 74° East 489 563 30,500 1,320 Climbing Oakland Center
01:41AM 38.2886 -120.4442 74° East 495 570 32,100 1,440 Climbing Oakland Center
01:42AM 38.3261 -120.2739 74° East 500 575 33,500 1,440 Climbing Oakland Center
01:43AM 38.3631 -120.1008 75° East 505 581 35,100 1,680 Climbing Oakland Center
01:44AM 38.3994 -119.9294 75° East 504 580 37,000 1,860 Climbing Oakland Center
01:45AM 38.4342 -119.7586 75° East 496 571 39,000 1,740 Climbing Oakland Center
01:46AM 38.4697 -119.5911 75° East 492 566 40,600 960 Climbing Oakland Center
01:47AM 38.5056 -119.4225 75° East 494 568 41,000 180 Climbing Oakland Center
01:48AM 38.5417 -119.2450 75° East 511 588 41,000  Level Oakland Center
01:49AM 38.5803 -119.0575 75° East 542 624 41,000  Level Oakland Center
01:50AM 38.6183 -118.8694 75° East 548 631 41,000  Level Oakland Center
01:51AM 38.6569 -118.6808 75° East 551 634 41,000  Level Oakland Center
01:52AM 38.6939 -118.4919 76° East 552 635 41,000  Level Oakland Center
01:53AM 38.7319 -118.3039 75° East 551 634 41,000  Level Oakland Center
01:54AM 38.7692 -118.1142 76° East 553 636 41,000  Level Oakland Center
01:55AM 38.8125 -117.8861 76° East 552 635 41,000  Level Oakland Center
01:56AM 38.8461 -117.7108 76° East 556 640 41,000  Level Oakland Center
01:56AM 38.8681 -117.5958 76° East 555 639 41,000  Level Salt Lake Center
01:57AM 38.9042 -117.4019 76° East 556 640 41,000  Level Salt Lake Center
01:58AM 38.9397 -117.2081 77° East 556 640 41,000  Level Salt Lake Center
01:59AM 38.9758 -117.0147 76° East 554 638 41,000  Level Salt Lake Center
02:00AM 39.0117 -116.8211 77° East 555 639 41,000  Level Salt Lake Center
02:01AM 39.0461 -116.6269 77° East 556 640 41,000  Level Salt Lake Center
02:02AM 39.0811 -116.4325 77° East 556 640 41,000  Level Salt Lake Center
02:03AM 39.1161 -116.2361 77° East 557 641 41,000  Level Salt Lake Center
02:04AM 39.1547 -116.0189 77° East 558 642 41,000  Level Salt Lake Center
02:05AM 39.1869 -115.8322 77° East 558 642 41,000  Level Salt Lake Center
02:06AM 39.2200 -115.6442 77° East 563 648 41,000  Level Salt Lake Center
02:07AM 39.2578 -115.4244 77° East 564 649 41,000  Level Salt Lake Center
02:08AM 39.2883 -115.2389 78° East 558 642 41,000  Level Salt Lake Center
02:10AM 39.3197 -115.0533 78° East 555 639 41,000  Level Salt Lake Center
02:11AM 39.3539 -114.8364 78° East 554 638 41,000  Level Salt Lake Center
02:12AM 39.3853 -114.6486 78° East 558 642 41,000  Level Salt Lake Center
02:13AM 39.4147 -114.4631 78° East 554 638 41,000  Level Salt Lake Center
02:14AM 39.4531 -114.2336 78° East 568 654 41,000  Level Salt Lake Center
02:15AM 39.4831 -114.0367 79° East 559 643 41,000  Level Salt Lake Center
02:16AM 39.5156 -113.8386 78° East 561 646 41,000  Level Salt Lake Center
02:17AM 39.5447 -113.6386 79° East 564 649 41,000  Level Salt Lake Center
02:18AM 39.5753 -113.4383 79° East 565 650 41,000  Level Salt Lake Center
02:19AM 39.6050 -113.2397 79° East 563 648 41,000  Level Salt Lake Center
02:20AM 39.6344 -113.0397 79° East 564 649 41,000  Level Salt Lake Center
02:21AM 39.6633 -112.8400 79° East 563 648 41,000  Level Salt Lake Center
02:22AM 39.6919 -112.6411 79° East 562 647 41,000  Level Salt Lake Center
02:23AM 39.7225 -112.4283 79° East 560 644 41,000  Level Salt Lake Center
02:24AM 39.7492 -112.2317 80° East 557 641 41,000  Level Salt Lake Center
02:25AM 39.7772 -112.0344 79° East 557 641 41,000  Level Salt Lake Center
02:26AM 39.8042 -111.8344 80° East 564 649 41,000  Level Salt Lake Center
02:27AM 39.8297 -111.6350 80° East 564 649 41,000  Level Salt Lake Center
02:28AM 39.8558 -111.4425 80° East 560 644 41,000  Level Salt Lake Center
02:29AM 39.8825 -111.2517 80° East 561 646 41,000  Level Salt Lake Center
02:30AM 39.9114 -111.0325 80° East 553 636 41,000  Level Salt Lake Center
02:31AM 39.9367 -110.8417 80° East 557 641 41,000  Level Salt Lake Center
02:32AM 39.9594 -110.6533 81° East 551 634 41,000  Level Salt Lake Center
02:33AM 39.9864 -110.4311 81° East 556 640 41,000  Level Salt Lake Center
02:34AM 40.0094 -110.2419 81° East 552 635 41,000  Level Salt Lake Center
02:35AM 40.0322 -110.0553 81° East 547 629 41,000  Level Salt Lake Center
02:36AM 40.0578 -109.8353 81° East 548 631 41,000  Level Salt Lake Center
02:37AM 40.0803 -109.6469 81° East 548 631 41,000  Level Salt Lake Center
02:38AM 40.1017 -109.4567 82° East 551 634 41,000  Level Salt Lake Center
02:39AM 40.1214 -109.2944 81° East 554 638 41,000  Level Denver Center
02:40AM 40.1394 -109.1047 83° East 551 634 41,000  Level Denver Center
02:41AM 40.1281 -108.8803 94° East 550 633 41,000  Level Denver Center
02:42AM 40.1053 -108.6883 99° East 554 638 41,000  Level Denver Center
02:43AM 40.0811 -108.4981 99° East 552 635 41,000  Level Denver Center
02:44AM 40.0583 -108.3078 99° East 551 634 41,000  Level Denver Center
02:45AM 40.0253 -108.0578 100° East 546 628 41,000  Level Denver Center
02:46AM 40.0011 -107.8708 100° East 544 626 41,000  Level Denver Center
02:47AM 39.9733 -107.6539 99° East 543 625 41,000  Level Denver Center
02:48AM 39.9478 -107.4669 100° East 545 627 41,000  Level Denver Center
02:49AM 39.9239 -107.2822 100° East 543 625 41,000  Level Denver Center
02:50AM 39.8994 -107.1028 100° East 545 627 41,000 -1,200 Level Denver Center
02:51AM 39.8725 -106.9058 100° East 549 632 38,700 -2,640 Descending Denver Center
02:52AM 39.8472 -106.7100 99° East 544 626 35,800 -3,180 Descending Denver Center
02:53AM 39.8142 -106.4775 100° East 558 642 32,400 -3,180 Descending Denver Center
02:54AM 39.7858 -106.2783 100° East 562 647 29,400 -2,400 Descending Denver Center
02:55AM 39.7569 -106.0817 101° East 556 640 27,600 -1,800 Descending Denver Center
02:56AM 39.7025 -105.9031 112° Southeast 536 617 25,800 -2,280 Descending Denver Center
02:57AM 39.6422 -105.7336 115° Southeast 533 613 23,100 -2,880 Descending Denver Center
02:58AM 39.5872 -105.5769 114° Southeast 479 551 20,100 -2,700 Descending Denver Center
02:59AM 39.5428 -105.4261 111° Southeast 418 481 17,700 -2,520 Descending Denver Center
03:00AM 39.5186 -105.3006 104° East 358 412 14,900 -2,700 Descending Denver Center
03:01AM 39.5025 -105.1881 100° East 318 366 12,200 -2,040 Descending Denver Center
03:02AM 39.4869 -105.0836 101° East 298 343 10,800 -1,500 Descending Denver Center
03:03AM 39.4822 -104.9817 93° East 280 322 9,200 -1,560 Descending Denver Center
03:04AM 39.4808 -104.8928 91° East 236 272 7,700 -1,200 Descending Denver Center
03:05AM 39.5056 -104.8489 54° Northeast 160 184 6,900 -780 Descending Denver Center
03:06AM 39.5433 -104.8489 360° North 137 158 6,200 -540 Descending Denver Center
03:07AM 39.5761 -104.8511 357° North 133 153 5,800 -360 Descending Denver Center
03:09AM 39.5701 -104.8493 90° East  Level Estimated
03:16AM 39.5701 -104.8493 90° East  Level Estimated
03:17AM 39.5701 -104.8493 90° East  Level Estimated